createdAt,value
2023-02-16T00:01:26.361Z,31.73
2023-02-16T00:03:56.827Z,32.30
2023-02-16T00:06:25.305Z,30.93
2023-02-16T00:08:55.246Z,32.50
2023-02-16T00:11:46.382Z,31.73
2023-02-16T00:14:15.506Z,31.33
2023-02-16T00:16:43.552Z,32.40
2023-02-16T00:19:21.007Z,33.03
2023-02-16T00:21:49.676Z,34.43
2023-02-16T00:24:17.892Z,34.40
2023-02-16T00:26:47.478Z,37.37
2023-02-16T00:29:21.023Z,35.87
2023-02-16T00:31:49.423Z,36.37
2023-02-16T00:34:31.610Z,36.10
2023-02-16T00:37:01.349Z,33.40
2023-02-16T00:39:32.065Z,36.50
2023-02-16T00:42:02.879Z,38.00
2023-02-16T00:44:36.820Z,39.80
2023-02-16T00:47:12.043Z,42.27
2023-02-16T00:49:41.304Z,50.40
2023-02-16T00:52:33.285Z,47.33
2023-02-16T00:55:02.674Z,37.43
2023-02-16T00:57:34.394Z,37.20
2023-02-16T01:00:07.198Z,34.80
2023-02-16T01:02:35.196Z,33.80
2023-02-16T01:05:04.617Z,44.03
2023-02-16T01:07:50.125Z,33.43
2023-02-16T01:10:50.827Z,34.00
2023-02-16T01:13:19.228Z,32.50
2023-02-16T01:15:47.294Z,52.50
2023-02-16T01:18:17.296Z,34.33
2023-02-16T01:20:47.283Z,38.60
2023-02-16T01:23:15.303Z,37.20
2023-02-16T01:25:43.480Z,34.83
2023-02-16T01:28:20.285Z,41.57
2023-02-16T01:30:48.350Z,37.63
2023-02-16T01:33:16.534Z,43.87
2023-02-16T01:35:46.242Z,37.10
2023-02-16T01:38:18.908Z,33.27
2023-02-16T01:40:55.349Z,32.30
2023-02-16T01:43:27.084Z,44.13
2023-02-16T01:46:02.194Z,34.37
2023-02-16T01:48:32.698Z,43.30
2023-02-16T01:51:07.952Z,31.90
2023-02-16T01:53:41.042Z,38.70
2023-02-16T01:56:21.151Z,38.30
2023-02-16T01:58:53.904Z,37.77
2023-02-16T02:01:44.237Z,32.20
2023-02-16T02:04:43.784Z,38.90
2023-02-16T02:07:20.654Z,40.00
2023-02-16T02:09:56.519Z,41.80
2023-02-16T02:12:31.635Z,40.13
2023-02-16T02:14:59.611Z,40.87
2023-02-16T02:17:28.302Z,36.37
2023-02-16T02:20:03.444Z,37.53
2023-02-16T02:23:22.041Z,39.03
2023-02-16T02:26:43.588Z,32.80
2023-02-16T02:29:30.673Z,41.23
2023-02-16T02:32:09.547Z,46.27
2023-02-16T02:34:49.493Z,42.10
2023-02-16T02:37:25.486Z,32.37
2023-02-16T02:40:01.796Z,35.60
2023-02-16T02:42:38.269Z,36.20
2023-02-16T02:45:14.704Z,36.07
2023-02-16T02:47:45.985Z,32.70
2023-02-16T02:50:36.493Z,38.30
2023-02-16T02:53:08.063Z,32.30
2023-02-16T02:55:57.722Z,36.97
2023-02-16T02:58:46.176Z,30.00
2023-02-16T03:01:19.660Z,36.67
2023-02-16T03:03:52.190Z,32.53
2023-02-16T03:06:24.700Z,33.17
2023-02-16T03:09:01.852Z,34.97
2023-02-16T03:11:48.367Z,36.20
2023-02-16T03:14:20.113Z,36.93
2023-02-16T03:17:10.429Z,37.43
2023-02-16T03:19:58.520Z,42.87
2023-02-16T03:22:44.144Z,38.50
2023-02-16T03:25:29.896Z,37.10
2023-02-16T03:28:17.417Z,32.87
2023-02-16T03:30:47.765Z,37.77
2023-02-16T03:33:17.330Z,39.60
2023-02-16T03:35:46.404Z,30.50
2023-02-16T03:38:14.768Z,33.87
2023-02-16T03:40:45.146Z,35.50
2023-02-16T03:43:13.054Z,35.90
2023-02-16T03:45:44.265Z,29.77
2023-02-16T03:48:12.958Z,31.20
2023-02-16T03:50:42.210Z,41.00
2023-02-16T03:53:10.190Z,30.80
2023-02-16T03:55:39.717Z,32.60
2023-02-16T03:58:09.555Z,34.97
2023-02-16T04:00:38.736Z,31.73
2023-02-16T04:03:09.295Z,33.80
2023-02-16T04:05:37.935Z,33.80
2023-02-16T04:08:07.921Z,36.00
2023-02-16T04:10:36.204Z,35.57
2023-02-16T04:13:03.405Z,28.10
2023-02-16T04:15:31.949Z,26.10
2023-02-16T04:18:00.168Z,35.53
2023-02-16T04:20:30.130Z,33.47
2023-02-16T04:22:58.878Z,32.30
2023-02-16T04:25:28.871Z,34.73
2023-02-16T04:27:57.200Z,30.33
2023-02-16T04:30:27.757Z,33.67
2023-02-16T04:32:56.746Z,36.17
2023-02-16T04:35:24.671Z,33.13
2023-02-16T04:37:52.809Z,29.47
2023-02-16T04:40:21.075Z,34.00
2023-02-16T04:42:50.381Z,34.77
2023-02-16T04:45:18.440Z,32.73
2023-02-16T04:47:46.472Z,36.43
2023-02-16T04:50:14.569Z,31.53
2023-02-16T04:52:42.611Z,37.80
2023-02-16T04:55:11.580Z,35.33
2023-02-16T04:57:39.810Z,33.53
2023-02-16T05:00:12.638Z,33.13
2023-02-16T05:02:40.539Z,33.53
2023-02-16T05:05:09.373Z,33.43
2023-02-16T05:07:37.553Z,32.67
2023-02-16T05:10:06.852Z,35.43
2023-02-16T05:12:52.265Z,30.93
2023-02-16T05:15:21.964Z,32.17
2023-02-16T05:17:50.056Z,35.10
2023-02-16T05:20:17.999Z,31.80
2023-02-16T05:22:46.357Z,32.83
2023-02-16T05:25:14.317Z,34.90
2023-02-16T05:27:42.301Z,39.30
2023-02-16T05:30:11.538Z,38.97
2023-02-16T05:32:40.908Z,34.30
2023-02-16T05:35:09.588Z,42.10
2023-02-16T05:37:37.538Z,27.60
2023-02-16T05:40:06.142Z,32.30
2023-02-16T05:42:34.081Z,32.97
2023-02-16T05:45:02.330Z,31.80
2023-02-16T05:47:30.419Z,32.47
2023-02-16T05:49:59.657Z,34.90
2023-02-16T05:52:27.827Z,41.10
2023-02-16T05:54:55.876Z,36.53
2023-02-16T05:57:23.792Z,36.60
2023-02-16T05:59:51.707Z,41.20
2023-02-16T06:02:19.761Z,35.17
2023-02-16T06:04:47.799Z,32.80
2023-02-16T06:07:17.090Z,30.03
2023-02-16T06:09:45.003Z,34.10
2023-02-16T06:12:13.002Z,35.23
2023-02-16T06:14:40.887Z,29.90
2023-02-16T06:17:08.743Z,31.73
2023-02-16T06:19:36.640Z,34.67
2023-02-16T06:22:04.568Z,30.30
2023-02-16T06:24:33.972Z,38.00
2023-02-16T06:27:01.902Z,37.07
2023-02-16T06:29:29.930Z,37.90
2023-02-16T06:31:57.936Z,34.37
2023-02-16T06:34:27.063Z,34.20
2023-02-16T06:36:55.027Z,40.27
2023-02-16T06:39:23.036Z,33.73
2023-02-16T06:41:52.343Z,38.47
2023-02-16T06:44:20.436Z,32.63
2023-02-16T06:46:49.476Z,36.13
2023-02-16T06:49:19.767Z,31.70
2023-02-16T06:51:49.019Z,33.70
2023-02-16T06:54:17.628Z,38.17
2023-02-16T06:56:45.627Z,30.50
2023-02-16T06:59:16.023Z,33.87
2023-02-16T07:01:45.500Z,36.87
2023-02-16T07:04:13.925Z,34.80
2023-02-16T07:06:42.356Z,32.30
2023-02-16T07:09:12.407Z,37.33
2023-02-16T07:11:40.850Z,36.90
2023-02-16T07:14:08.778Z,39.87
2023-02-16T07:16:38.229Z,33.97
2023-02-16T07:19:06.880Z,34.83
2023-02-16T07:21:34.999Z,31.37
2023-02-16T07:24:03.684Z,36.67
2023-02-16T07:26:31.699Z,34.93
2023-02-16T07:28:59.784Z,34.57
2023-02-16T07:31:27.800Z,34.10
2023-02-16T07:33:58.118Z,33.30
2023-02-16T07:36:26.084Z,27.20
2023-02-16T07:38:54.946Z,24.53
2023-02-16T07:41:23.343Z,28.40
2023-02-16T07:43:51.322Z,29.03
2023-02-16T07:46:19.374Z,28.03
2023-02-16T07:48:48.797Z,28.87
2023-02-16T07:51:23.626Z,26.90
2023-02-16T07:53:52.137Z,25.00
2023-02-16T07:56:21.383Z,28.40
2023-02-16T07:58:49.396Z,29.33
2023-02-16T08:01:17.414Z,28.30
2023-02-16T08:03:45.395Z,29.57
2023-02-16T08:06:14.139Z,32.70
2023-02-16T08:08:43.706Z,32.53
2023-02-16T08:11:12.839Z,31.13
2023-02-16T08:13:40.958Z,32.50
2023-02-16T08:16:09.883Z,31.13
2023-02-16T08:18:37.994Z,31.30
2023-02-16T08:21:14.232Z,36.43
2023-02-16T08:23:47.532Z,37.03
2023-02-16T08:26:18.176Z,34.03
2023-02-16T08:28:46.941Z,35.70
2023-02-16T08:31:15.362Z,35.17
2023-02-16T08:33:43.921Z,37.97
2023-02-16T08:36:18.036Z,35.00
2023-02-16T08:38:50.365Z,32.47
2023-02-16T08:41:18.858Z,32.30
2023-02-16T08:43:46.893Z,32.97
2023-02-16T08:46:15.403Z,32.03
2023-02-16T08:48:45.129Z,28.30
2023-02-16T08:51:15.394Z,30.27
2023-02-16T08:53:43.405Z,28.80
2023-02-16T08:56:12.773Z,29.37
2023-02-16T08:58:40.978Z,30.60
2023-02-16T09:01:09.924Z,27.07
2023-02-16T09:03:41.152Z,28.30
2023-02-16T09:06:10.213Z,28.17
2023-02-16T09:08:38.432Z,26.13
2023-02-16T09:11:07.701Z,30.80
2023-02-16T09:13:37.789Z,26.50
2023-02-16T09:16:08.036Z,26.27
2023-02-16T09:18:36.753Z,26.10
2023-02-16T09:21:06.833Z,24.20
2023-02-16T09:23:35.961Z,22.43
2023-02-16T09:26:06.954Z,23.50
2023-02-16T09:28:37.442Z,35.93
2023-02-16T09:31:11.677Z,23.20
2023-02-16T09:33:40.508Z,22.10
2023-02-16T09:36:10.696Z,25.77
2023-02-16T09:38:40.068Z,25.13
2023-02-16T09:41:11.683Z,20.60
2023-02-16T09:43:50.323Z,20.03
2023-02-16T09:46:23.428Z,23.50
2023-02-16T09:48:52.801Z,19.00
2023-02-16T09:51:34.419Z,18.50
2023-02-16T09:54:14.256Z,21.27
2023-02-16T09:56:50.989Z,20.80
2023-02-16T09:59:44.125Z,19.73
2023-02-16T10:02:26.418Z,18.13
2023-02-16T10:05:04.701Z,17.00
2023-02-16T10:07:44.208Z,17.57
2023-02-16T10:10:16.440Z,16.97
2023-02-16T10:12:51.525Z,17.40
2023-02-16T10:15:24.699Z,17.50
2023-02-16T10:17:56.054Z,23.70
2023-02-16T10:20:32.549Z,17.53
2023-02-16T10:23:08.230Z,17.23
2023-02-16T10:25:42.093Z,15.60
2023-02-16T10:28:18.050Z,16.50
2023-02-16T10:30:54.508Z,33.20
2023-02-16T10:33:36.384Z,16.70
2023-02-16T10:36:16.385Z,17.43
2023-02-16T10:38:51.954Z,14.87
2023-02-16T10:41:32.827Z,15.53
2023-02-16T10:44:05.530Z,13.60
2023-02-16T10:46:43.010Z,15.40
2023-02-16T10:49:14.108Z,13.40
2023-02-16T10:51:46.135Z,16.70
2023-02-16T10:54:20.147Z,14.00
2023-02-16T10:56:54.122Z,14.33
2023-02-16T10:59:23.847Z,13.60
2023-02-16T11:01:54.283Z,12.60
2023-02-16T11:04:33.821Z,15.30
2023-02-16T11:07:04.972Z,13.83
2023-02-16T11:09:33.661Z,12.07
2023-02-16T11:12:02.947Z,14.97
2023-02-16T11:14:32.760Z,11.17
2023-02-16T11:17:11.004Z,10.37
2023-02-16T11:19:40.481Z,12.57
2023-02-16T11:22:25.377Z,11.83
2023-02-16T11:24:53.304Z,12.00
2023-02-16T11:27:23.252Z,13.50
2023-02-16T11:29:51.704Z,11.60
2023-02-16T11:32:22.596Z,10.30
2023-02-16T11:35:10.664Z,9.80
2023-02-16T11:37:41.537Z,11.10
2023-02-16T11:40:21.490Z,10.13
2023-02-16T11:42:52.015Z,10.37
2023-02-16T11:45:27.182Z,8.70
2023-02-16T11:47:57.656Z,4.20
2023-02-16T11:50:30.212Z,3.60
2023-02-16T11:53:14.743Z,3.60
2023-02-16T11:55:45.018Z,3.57
2023-02-16T11:58:22.569Z,3.77
2023-02-16T12:01:10.241Z,3.40
2023-02-16T12:04:04.314Z,3.27
2023-02-16T12:06:47.514Z,4.00
2023-02-16T12:09:26.833Z,4.07
2023-02-16T12:12:04.530Z,3.30
2023-02-16T12:14:42.828Z,3.33
2023-02-16T12:17:22.731Z,3.83
2023-02-16T12:19:56.491Z,4.20
2023-02-16T12:22:32.409Z,4.60
2023-02-16T12:25:14.014Z,3.60
2023-02-16T12:27:50.906Z,4.37
2023-02-16T12:30:39.192Z,3.90
2023-02-16T12:33:23.779Z,3.30
2023-02-16T12:36:09.725Z,3.40
2023-02-16T12:38:51.973Z,4.17
2023-02-16T12:41:30.998Z,3.50
2023-02-16T12:44:01.998Z,4.30
2023-02-16T12:46:33.878Z,5.30
2023-02-16T12:49:07.436Z,4.70
2023-02-16T12:51:40.302Z,4.50
2023-02-16T12:54:14.569Z,5.60
2023-02-16T12:56:46.797Z,5.83
2023-02-16T12:59:20.671Z,6.70
2023-02-16T13:01:53.037Z,7.17
2023-02-16T13:04:28.661Z,6.40
2023-02-16T13:07:06.483Z,7.27
2023-02-16T13:09:46.047Z,7.60
2023-02-16T13:12:25.712Z,8.50
2023-02-16T13:15:02.724Z,8.00
2023-02-16T13:17:35.132Z,8.23
2023-02-16T13:20:04.617Z,6.80
2023-02-16T13:22:47.685Z,7.80
2023-02-16T13:25:38.272Z,8.47
2023-02-16T13:28:23.600Z,8.00
2023-02-16T13:31:15.667Z,8.43
2023-02-16T13:34:06.085Z,10.27
2023-02-16T13:36:55.221Z,9.87
2023-02-16T13:39:37.582Z,24.80
2023-02-16T13:42:34.940Z,7.63
2023-02-16T13:45:05.936Z,7.80
2023-02-16T13:47:38.629Z,9.33
2023-02-16T13:50:09.539Z,7.23
2023-02-16T13:52:41.186Z,9.60
2023-02-16T13:55:24.068Z,7.87
2023-02-16T13:58:04.461Z,8.40
2023-02-16T14:00:36.543Z,8.60
2023-02-16T14:03:12.319Z,10.10
2023-02-16T14:05:42.304Z,7.80
2023-02-16T14:08:20.620Z,8.10
2023-02-16T14:11:10.098Z,9.47
2023-02-16T14:13:50.737Z,8.23
2023-02-16T14:16:33.895Z,7.23
2023-02-16T14:19:06.047Z,7.63
2023-02-16T14:21:38.785Z,8.47
2023-02-16T14:24:11.762Z,8.27
2023-02-16T14:26:54.693Z,7.90
2023-02-16T14:29:28.142Z,8.10
2023-02-16T14:32:02.013Z,8.00
2023-02-16T14:34:36.385Z,8.60
2023-02-16T14:37:30.191Z,8.60
2023-02-16T14:40:19.681Z,9.27
2023-02-16T14:43:02.665Z,8.10
2023-02-16T14:46:12.394Z,9.17
2023-02-16T14:49:19.319Z,6.77
2023-02-16T14:52:04.821Z,7.67
2023-02-16T14:55:17.618Z,7.70
2023-02-16T14:57:53.073Z,9.80
2023-02-16T15:00:29.590Z,10.07
2023-02-16T15:03:01.822Z,7.67
2023-02-16T15:05:32.924Z,10.20
2023-02-16T15:08:09.701Z,12.23
2023-02-16T15:10:40.364Z,10.63
2023-02-16T15:13:09.761Z,9.43
2023-02-16T15:15:46.177Z,11.30
2023-02-16T15:18:18.405Z,10.43
2023-02-16T15:20:49.120Z,10.73
2023-02-16T15:23:21.441Z,9.53
2023-02-16T15:25:59.278Z,9.23
2023-02-16T15:28:29.420Z,9.33
2023-02-16T15:30:59.433Z,8.27
2023-02-16T15:33:36.180Z,8.50
2023-02-16T15:36:07.967Z,8.20
2023-02-16T15:38:38.010Z,8.17
2023-02-16T15:41:08.081Z,9.53
2023-02-16T15:43:39.975Z,8.57
2023-02-16T15:46:15.859Z,9.07
2023-02-16T15:48:45.933Z,10.87
2023-02-16T15:51:18.997Z,9.63
2023-02-16T15:53:50.667Z,9.73
2023-02-16T15:56:29.433Z,10.00
2023-02-16T15:59:00.821Z,8.60
2023-02-16T16:01:33.839Z,9.50
2023-02-16T16:04:07.209Z,9.10
2023-02-16T16:06:38.081Z,8.90
2023-02-16T16:09:08.573Z,9.03
2023-02-16T16:11:38.139Z,9.77
2023-02-16T16:14:07.370Z,9.57
2023-02-16T16:16:36.075Z,10.60
2023-02-16T16:19:14.964Z,12.70
2023-02-16T16:21:54.101Z,11.67
2023-02-16T16:24:33.545Z,11.00
2023-02-16T16:27:04.733Z,10.73
2023-02-16T16:29:36.308Z,19.80
2023-02-16T16:32:06.222Z,10.00
2023-02-16T16:34:40.613Z,7.10
2023-02-16T16:37:25.103Z,7.93
2023-02-16T16:40:01.846Z,8.17
2023-02-16T16:42:31.085Z,7.60
2023-02-16T16:45:06.951Z,8.57
2023-02-16T16:47:38.696Z,7.70
2023-02-16T16:50:30.270Z,12.33
2023-02-16T16:52:58.967Z,32.27
2023-02-16T16:55:33.345Z,11.83
2023-02-16T16:58:03.295Z,10.83
2023-02-16T17:00:35.424Z,9.60
2023-02-16T17:03:04.675Z,9.40
2023-02-16T17:05:35.795Z,9.30
2023-02-16T17:08:03.901Z,9.67
2023-02-16T17:10:32.338Z,7.50
2023-02-16T17:13:02.933Z,6.63
2023-02-16T17:15:36.312Z,17.33
2023-02-16T17:18:05.199Z,12.10
2023-02-16T17:20:34.459Z,10.00
2023-02-16T17:23:04.821Z,7.60
2023-02-16T17:25:36.776Z,7.37
2023-02-16T17:28:06.245Z,8.10
2023-02-16T17:30:35.147Z,8.57
2023-02-16T17:33:03.613Z,8.00
2023-02-16T17:35:34.067Z,6.70
2023-02-16T17:38:08.248Z,9.27
2023-02-16T17:40:36.181Z,6.70
2023-02-16T17:43:07.780Z,7.10
2023-02-16T17:45:35.757Z,7.13
2023-02-16T17:48:03.732Z,6.90
2023-02-16T17:50:33.056Z,8.30
2023-02-16T17:53:02.872Z,8.57
2023-02-16T17:55:30.962Z,8.20
2023-02-16T17:57:59.101Z,8.53
2023-02-16T18:00:27.336Z,9.50
2023-02-16T18:02:55.251Z,9.83
2023-02-16T18:05:23.544Z,9.40
2023-02-16T18:07:52.297Z,9.00
2023-02-16T18:10:33.680Z,10.10
2023-02-16T18:13:01.923Z,10.10
2023-02-16T18:15:30.554Z,13.67
2023-02-16T18:17:59.072Z,12.20
2023-02-16T18:20:27.663Z,9.97
2023-02-16T18:22:55.582Z,9.03
2023-02-16T18:25:25.195Z,9.10
2023-02-16T18:27:53.796Z,8.80
2023-02-16T18:30:22.270Z,9.87
2023-02-16T18:32:50.851Z,9.00
2023-02-16T18:35:19.584Z,10.07
2023-02-16T18:37:47.916Z,9.03
2023-02-16T18:40:19.484Z,8.93
2023-02-16T18:42:48.926Z,7.67
2023-02-16T18:45:16.903Z,7.90
2023-02-16T18:47:45.334Z,8.20
2023-02-16T18:50:13.629Z,7.73
2023-02-16T18:52:43.286Z,8.60
2023-02-16T18:55:11.976Z,8.63
2023-02-16T18:57:40.095Z,7.70
2023-02-16T19:00:12.104Z,7.90
2023-02-16T19:02:40.796Z,8.93
2023-02-16T19:05:09.909Z,8.37
2023-02-16T19:07:37.891Z,8.73
2023-02-16T19:10:08.294Z,8.73
2023-02-16T19:12:36.298Z,9.53
2023-02-16T19:15:04.653Z,10.07
2023-02-16T19:17:34.209Z,9.70
2023-02-16T19:20:02.446Z,9.80
2023-02-16T19:22:30.635Z,9.87
2023-02-16T19:24:58.537Z,9.10
2023-02-16T19:27:26.489Z,11.13
2023-02-16T19:29:54.490Z,8.90
2023-02-16T19:32:22.446Z,10.10
2023-02-16T19:34:51.747Z,9.93
2023-02-16T19:37:20.107Z,10.97
2023-02-16T19:39:48.024Z,11.10
2023-02-16T19:42:16.046Z,11.03
2023-02-16T19:44:44.004Z,10.40
2023-02-16T19:47:12.019Z,11.10
2023-02-16T19:49:40.078Z,10.43
2023-02-16T19:52:09.586Z,10.63
2023-02-16T19:54:37.694Z,10.20
2023-02-16T19:57:06.301Z,10.80
2023-02-16T19:59:34.438Z,11.13
2023-02-16T20:02:02.356Z,11.50
2023-02-16T20:04:30.460Z,11.30
2023-02-16T20:06:58.431Z,11.53
2023-02-16T20:09:28.205Z,12.10
2023-02-16T20:11:56.119Z,11.03
2023-02-16T20:14:24.199Z,10.33
2023-02-16T20:16:52.156Z,10.47
2023-02-16T20:19:20.132Z,9.87
2023-02-16T20:21:48.033Z,10.50
2023-02-16T20:24:16.444Z,9.30
2023-02-16T20:26:48.992Z,9.40
2023-02-16T20:29:17.117Z,9.60
2023-02-16T20:31:49.781Z,9.70
2023-02-16T20:34:18.753Z,9.10
2023-02-16T20:36:46.675Z,9.10
2023-02-16T20:39:15.184Z,8.87
2023-02-16T20:41:43.177Z,10.23
2023-02-16T20:44:13.330Z,9.33
2023-02-16T20:46:42.365Z,8.60
2023-02-16T20:49:10.925Z,7.57
2023-02-16T20:51:38.983Z,8.73
2023-02-16T20:54:07.170Z,9.30
2023-02-16T20:56:35.352Z,8.07
2023-02-16T20:59:04.497Z,10.00
2023-02-16T21:01:37.466Z,9.90
2023-02-16T21:04:06.740Z,8.90
2023-02-16T21:06:35.264Z,8.63
2023-02-16T21:09:03.809Z,9.60
2023-02-16T21:11:31.906Z,10.40
2023-02-16T21:14:02.110Z,11.83
2023-02-16T21:16:30.481Z,12.67
2023-02-16T21:18:59.815Z,11.53
2023-02-16T21:21:27.865Z,9.83
2023-02-16T21:23:56.348Z,10.87
2023-02-16T21:26:26.207Z,11.90
2023-02-16T21:28:55.232Z,11.37
2023-02-16T21:31:25.118Z,10.30
2023-02-16T21:33:53.637Z,13.40
2023-02-16T21:36:25.100Z,13.87
2023-02-16T21:38:53.666Z,15.10
2023-02-16T21:41:25.343Z,14.90
2023-02-16T21:44:00.624Z,12.40
2023-02-16T21:46:30.394Z,10.93
2023-02-16T21:48:57.718Z,11.70
2023-02-16T21:51:29.597Z,10.70
2023-02-16T21:53:59.096Z,13.00
2023-02-16T21:56:36.038Z,12.87
2023-02-16T21:59:05.381Z,13.03
2023-02-16T22:01:35.838Z,13.40
2023-02-16T22:04:05.195Z,14.23
2023-02-16T22:06:36.260Z,14.77
2023-02-16T22:09:08.175Z,14.27
2023-02-16T22:11:36.395Z,14.00
2023-02-16T22:14:04.340Z,15.77
2023-02-16T22:16:33.438Z,14.90
2023-02-16T22:19:05.009Z,15.53
2023-02-16T22:21:38.249Z,14.53
2023-02-16T22:24:07.342Z,13.83
2023-02-16T22:26:36.488Z,13.97
2023-02-16T22:29:05.952Z,14.23
2023-02-16T22:31:34.391Z,14.80
2023-02-16T22:34:05.510Z,13.40
2023-02-16T22:36:33.500Z,15.73
2023-02-16T22:39:02.869Z,14.93
2023-02-16T22:41:31.210Z,15.20
2023-02-16T22:43:59.933Z,15.43
2023-02-16T22:46:29.182Z,13.80
2023-02-16T22:48:58.813Z,14.50
2023-02-16T22:51:29.476Z,15.80
2023-02-16T22:53:59.574Z,15.27
2023-02-16T22:56:29.705Z,14.93
2023-02-16T22:58:58.317Z,14.67
2023-02-16T23:01:28.120Z,14.23
2023-02-16T23:03:57.977Z,15.30
2023-02-16T23:06:28.531Z,14.30
2023-02-16T23:08:59.432Z,14.97
2023-02-16T23:11:29.167Z,15.07
2023-02-16T23:13:57.199Z,15.10
2023-02-16T23:16:26.544Z,16.33
2023-02-16T23:18:56.258Z,16.37
2023-02-16T23:21:26.218Z,15.60
2023-02-16T23:23:55.239Z,15.50
2023-02-16T23:26:24.824Z,16.13
2023-02-16T23:28:55.977Z,16.00
2023-02-16T23:31:24.545Z,15.80
2023-02-16T23:33:52.859Z,15.57
2023-02-16T23:36:20.793Z,13.97
2023-02-16T23:38:48.731Z,14.10
2023-02-16T23:41:17.341Z,15.87
2023-02-16T23:43:45.297Z,14.60
2023-02-16T23:46:14.659Z,15.07
2023-02-16T23:48:42.632Z,13.40
2023-02-16T23:51:12.058Z,14.63
2023-02-16T23:53:40.532Z,14.53
2023-02-16T23:56:12.404Z,14.93
2023-02-16T23:58:42.229Z,13.60
